Skip Navigation Links
NOAA logo - Click to go to the NOAA homepage
NOAA's National Weather Service
Alaska Aviation Weather Unit
  NWS logo - Click to go to the NWS homepage
Left Navbar Graphic     17 AKDT = 01 GMT

   
NOAA is celebrating 200 years of science, service, and stewardship. Visit the NOAA 200th celebration Web site to learn more.
USA.gov is the U.S. Government's official Web portal to all Federal, state and local government Web resources and services.
Facebook
NWS on Facebook

Important Change Regarding the AAWU Web Presence

 

Over the last several months, the AAWU has been working to navigate its webpages to a nationally supported server. Security, as well as other needs, have necessitated the change.  In the process, we have made an effort to enhance the functionality of our website, as well as some of our products. As of June 27, 2017, aawu.arh.noaa.gov will be discontinued. The new AAWU web address is weather.gov/aawu. It is now live and will run in-parallel with the old site until it is discontinued. Please send any feedback or questions regarding the new webpages to nws.ar.aawu.webauthors@noaa.gov.  Thank you for your patience during this time of transition.
AAWU Home :: Display TAF Add Bookmark
TAF PAGS 252325Z 2523/2624 VRB05KT P6SM -SHRA SCT007 OVC060
      TEMPO 2523/2602 6SM -SHRA BR BKN007 OVC014
     FM260200 23006KT P6SM VCSH SCT014 BKN035 OVC060
     FM260900 VRB03KT P6SM FEW005 BKN060
     FM261200 00000KT P6SM BKN005 BKN060
      AMD LTD TO CLD VIS AND WIND=

SPECI PAGS 251920Z AUTO 00000KT 10SM -RA BKN008 BKN021 OVC046 12/11 A2999 RMK AO2 CIG 005V009 P0001= METAR PAGS 251956Z AUTO 00000KT 10SM -RA OVC008 12/11 A2999 RMK AO2 SLP155 P0001 T01220111= SPECI PAGS 252046Z AUTO 00000KT 10SM -RA SCT008 BKN028 OVC075 14/12 A2998 RMK AO2 P0002= METAR PAGS 252056Z AUTO 00000KT 10SM -RA SCT008 BKN031 OVC070 14/11 A2998 RMK AO2 SLP152 P0002 60004 T01390111 50001= SPECI PAGS 252115Z AUTO 00000KT 10SM -RA BKN010 BKN034 OVC070 14/12 A2998 RMK AO2 P0000= PAGS 252153Z AUTO 21004KT 10SM BKN009 OVC014 13/12 A2998 RMK AO2 RAE23 P0000= METAR PAGS 252156Z AUTO VRB03KT 10SM BKN007 OVC014 13/11 A2999 RMK AO2 RAE23 SLP154 P0000 T01330111= METAR PAGS 252256Z AUTO 13005KT 10SM OVC007 14/12 A2999 RMK AO2 CIG 007V011 SLP154 T01390117= SPECI PAGS 252319Z AUTO 13004KT 10SM -RA SCT009 OVC070 14/12 A2999 RMK AO2 RAB12 P0000= METAR PAGS 252356Z AUTO 14004KT 10SM -RA FEW035 OVC070 14/12 A2998 RMK AO2 RAB12 SLP154 P0000 60004 T01390117 10144 20117 50000=
 Alaska TAF Map

NOAA's National Weather Service
Alaska Aviation Weather Unit
6930 Sand Lake Road
Anchorage, AK 99502-1845
Disclaimer
Credits
Glossary
Privacy Policy
About Us
Career Opportunities
Contact AAWU Internet Services Site last modified: April, 17th 2012